sensor_id;sensor_type;location;lat;lon;timestamp;P1;durP1;ratioP1;P2;durP2;ratioP2
13455;SDS011;6800;50.940;6.940;2022-07-23T00:00:20;21.63;;;19.50;;
13455;SDS011;6800;50.940;6.940;2022-07-23T00:04:20;22.13;;;19.63;;
13455;SDS011;6800;50.940;6.940;2022-07-23T00:08:21;21.05;;;18.90;;
13455;SDS011;6800;50.940;6.940;2022-07-23T00:12:21;21.02;;;18.83;;
13455;SDS011;6800;50.940;6.940;2022-07-23T00:16:21;20.00;;;18.00;;
13455;SDS011;6800;50.940;6.940;2022-07-23T00:20:22;23.15;;;20.65;;
13455;SDS011;6800;50.940;6.940;2022-07-23T00:24:22;27.33;;;23.10;;
13455;SDS011;6800;50.940;6.940;2022-07-23T00:28:22;26.52;;;23.73;;
13455;SDS011;6800;50.940;6.940;2022-07-23T00:32:23;29.15;;;24.10;;
13455;SDS011;6800;50.940;6.940;2022-07-23T00:36:23;26.05;;;22.95;;
13455;SDS011;6800;50.940;6.940;2022-07-23T00:40:24;25.88;;;22.17;;
13455;SDS011;6800;50.940;6.940;2022-07-23T00:44:26;23.67;;;20.05;;
13455;SDS011;6800;50.940;6.940;2022-07-23T00:48:27;23.47;;;20.97;;
13455;SDS011;6800;50.940;6.940;2022-07-23T00:52:31;27.57;;;21.67;;
13455;SDS011;6800;50.940;6.940;2022-07-23T00:56:32;20.03;;;17.90;;
13455;SDS011;6800;50.940;6.940;2022-07-23T01:00:32;19.48;;;17.42;;
13455;SDS011;6800;50.940;6.940;2022-07-23T01:04:33;19.33;;;17.33;;
13455;SDS011;6800;50.940;6.940;2022-07-23T01:08:33;18.10;;;16.17;;
13455;SDS011;6800;50.940;6.940;2022-07-23T01:12:34;20.67;;;17.92;;
13455;SDS011;6800;50.940;6.940;2022-07-23T01:16:34;25.03;;;19.43;;
13455;SDS011;6800;50.940;6.940;2022-07-23T01:20:35;21.20;;;18.73;;
13455;SDS011;6800;50.940;6.940;2022-07-23T01:24:35;26.33;;;22.20;;
13455;SDS011;6800;50.940;6.940;2022-07-23T01:28:36;27.20;;;21.50;;
13455;SDS011;6800;50.940;6.940;2022-07-23T01:32:36;25.70;;;22.50;;
13455;SDS011;6800;50.940;6.940;2022-07-23T01:36:36;21.60;;;18.73;;
13455;SDS011;6800;50.940;6.940;2022-07-23T01:40:37;20.60;;;18.37;;
13455;SDS011;6800;50.940;6.940;2022-07-23T01:44:37;19.77;;;17.77;;
13455;SDS011;6800;50.940;6.940;2022-07-23T01:48:37;19.33;;;17.43;;
13455;SDS011;6800;50.940;6.940;2022-07-23T01:52:38;21.47;;;19.20;;
13455;SDS011;6800;50.940;6.940;2022-07-23T01:56:38;24.80;;;21.07;;
13455;SDS011;6800;50.940;6.940;2022-07-23T02:00:38;27.63;;;21.83;;
13455;SDS011;6800;50.940;6.940;2022-07-23T02:04:39;27.87;;;22.67;;
13455;SDS011;6800;50.940;6.940;2022-07-23T02:08:39;29.60;;;23.13;;
13455;SDS011;6800;50.940;6.940;2022-07-23T02:12:39;30.20;;;25.23;;
13455;SDS011;6800;50.940;6.940;2022-07-23T02:16:40;35.90;;;27.07;;
13455;SDS011;6800;50.940;6.940;2022-07-23T02:20:41;34.50;;;27.33;;
13455;SDS011;6800;50.940;6.940;2022-07-23T02:24:42;39.60;;;28.10;;
13455;SDS011;6800;50.940;6.940;2022-07-23T02:28:42;35.60;;;28.40;;
13455;SDS011;6800;50.940;6.940;2022-07-23T02:32:42;32.63;;;27.57;;
13455;SDS011;6800;50.940;6.940;2022-07-23T02:36:42;34.03;;;27.17;;
13455;SDS011;6800;50.940;6.940;2022-07-23T02:40:43;32.00;;;25.47;;
13455;SDS011;6800;50.940;6.940;2022-07-23T02:44:43;31.33;;;26.52;;
13455;SDS011;6800;50.940;6.940;2022-07-23T02:48:43;36.23;;;27.97;;
13455;SDS011;6800;50.940;6.940;2022-07-23T02:52:44;33.17;;;26.77;;
13455;SDS011;6800;50.940;6.940;2022-07-23T02:56:44;33.15;;;26.55;;
13455;SDS011;6800;50.940;6.940;2022-07-23T03:00:44;36.20;;;28.27;;
13455;SDS011;6800;50.940;6.940;2022-07-23T03:04:45;37.07;;;29.13;;
13455;SDS011;6800;50.940;6.940;2022-07-23T03:08:45;38.03;;;30.38;;
13455;SDS011;6800;50.940;6.940;2022-07-23T03:12:47;43.57;;;30.47;;
13455;SDS011;6800;50.940;6.940;2022-07-23T03:16:47;37.43;;;30.27;;
13455;SDS011;6800;50.940;6.940;2022-07-23T03:20:50;42.60;;;30.27;;
13455;SDS011;6800;50.940;6.940;2022-07-23T03:24:51;41.40;;;32.10;;
13455;SDS011;6800;50.940;6.940;2022-07-23T03:28:54;42.17;;;32.53;;
13455;SDS011;6800;50.940;6.940;2022-07-23T03:32:54;41.67;;;31.60;;
13455;SDS011;6800;50.940;6.940;2022-07-23T03:36:54;42.83;;;33.37;;
13455;SDS011;6800;50.940;6.940;2022-07-23T03:40:55;43.07;;;32.80;;
13455;SDS011;6800;50.940;6.940;2022-07-23T03:44:55;44.23;;;33.10;;
13455;SDS011;6800;50.940;6.940;2022-07-23T03:48:55;41.93;;;34.33;;
13455;SDS011;6800;50.940;6.940;2022-07-23T03:52:55;44.07;;;32.43;;
13455;SDS011;6800;50.940;6.940;2022-07-23T03:56:56;44.77;;;35.40;;
13455;SDS011;6800;50.940;6.940;2022-07-23T04:00:56;41.90;;;32.60;;
13455;SDS011;6800;50.940;6.940;2022-07-23T04:04:56;44.83;;;34.43;;
13455;SDS011;6800;50.940;6.940;2022-07-23T04:08:57;42.60;;;33.03;;
13455;SDS011;6800;50.940;6.940;2022-07-23T04:12:57;44.00;;;33.57;;
13455;SDS011;6800;50.940;6.940;2022-07-23T04:16:57;42.20;;;33.17;;
13455;SDS011;6800;50.940;6.940;2022-07-23T04:20:58;44.53;;;33.30;;
13455;SDS011;6800;50.940;6.940;2022-07-23T04:24:58;45.37;;;34.83;;
13455;SDS011;6800;50.940;6.940;2022-07-23T04:28:58;42.83;;;33.60;;
13455;SDS011;6800;50.940;6.940;2022-07-23T04:32:58;41.53;;;32.70;;
13455;SDS011;6800;50.940;6.940;2022-07-23T04:36:59;37.83;;;30.87;;
13455;SDS011;6800;50.940;6.940;2022-07-23T04:40:59;37.90;;;31.60;;
13455;SDS011;6800;50.940;6.940;2022-07-23T04:45:00;39.90;;;31.27;;
13455;SDS011;6800;50.940;6.940;2022-07-23T04:49:00;38.73;;;31.93;;
13455;SDS011;6800;50.940;6.940;2022-07-23T04:53:01;38.80;;;31.97;;
13455;SDS011;6800;50.940;6.940;2022-07-23T04:57:01;42.28;;;32.97;;
13455;SDS011;6800;50.940;6.940;2022-07-23T05:01:01;40.03;;;30.83;;
13455;SDS011;6800;50.940;6.940;2022-07-23T05:05:02;40.60;;;32.17;;
13455;SDS011;6800;50.940;6.940;2022-07-23T05:09:02;39.38;;;32.63;;
13455;SDS011;6800;50.940;6.940;2022-07-23T05:13:03;39.72;;;32.40;;
13455;SDS011;6800;50.940;6.940;2022-07-23T05:17:03;35.72;;;29.48;;
13455;SDS011;6800;50.940;6.940;2022-07-23T05:21:03;38.92;;;31.02;;
13455;SDS011;6800;50.940;6.940;2022-07-23T05:25:04;33.08;;;28.95;;
13455;SDS011;6800;50.940;6.940;2022-07-23T05:29:05;30.05;;;26.75;;
13455;SDS011;6800;50.940;6.940;2022-07-23T05:33:05;31.92;;;26.10;;
13455;SDS011;6800;50.940;6.940;2022-07-23T05:37:07;28.75;;;24.35;;
13455;SDS011;6800;50.940;6.940;2022-07-23T05:41:07;28.20;;;24.95;;
13455;SDS011;6800;50.940;6.940;2022-07-23T05:45:08;23.83;;;21.33;;
13455;SDS011;6800;50.940;6.940;2022-07-23T05:49:08;23.42;;;20.85;;
13455;SDS011;6800;50.940;6.940;2022-07-23T05:53:09;22.15;;;19.67;;
13455;SDS011;6800;50.940;6.940;2022-07-23T05:57:09;22.25;;;18.27;;
13455;SDS011;6800;50.940;6.940;2022-07-23T06:01:10;23.30;;;20.80;;
13455;SDS011;6800;50.940;6.940;2022-07-23T06:05:11;23.67;;;19.98;;
13455;SDS011;6800;50.940;6.940;2022-07-23T06:09:11;20.67;;;17.95;;
13455;SDS011;6800;50.940;6.940;2022-07-23T06:13:14;19.95;;;16.63;;
13455;SDS011;6800;50.940;6.940;2022-07-23T06:17:14;18.98;;;16.92;;
13455;SDS011;6800;50.940;6.940;2022-07-23T06:21:14;22.63;;;16.92;;
13455;SDS011;6800;50.940;6.940;2022-07-23T06:25:15;18.05;;;16.10;;
13455;SDS011;6800;50.940;6.940;2022-07-23T06:29:16;17.38;;;15.63;;
13455;SDS011;6800;50.940;6.940;2022-07-23T06:33:16;16.45;;;14.82;;
13455;SDS011;6800;50.940;6.940;2022-07-23T06:37:17;15.30;;;13.73;;
13455;SDS011;6800;50.940;6.940;2022-07-23T06:41:17;15.35;;;13.82;;
13455;SDS011;6800;50.940;6.940;2022-07-23T06:45:17;15.73;;;14.23;;
13455;SDS011;6800;50.940;6.940;2022-07-23T06:49:18;13.90;;;12.68;;
13455;SDS011;6800;50.940;6.940;2022-07-23T06:53:18;12.52;;;11.32;;
13455;SDS011;6800;50.940;6.940;2022-07-23T06:57:18;12.53;;;11.23;;
13455;SDS011;6800;50.940;6.940;2022-07-23T07:01:19;11.60;;;10.60;;
13455;SDS011;6800;50.940;6.940;2022-07-23T07:05:19;11.68;;;10.57;;
13455;SDS011;6800;50.940;6.940;2022-07-23T07:09:19;13.10;;;11.80;;
13455;SDS011;6800;50.940;6.940;2022-07-23T07:13:20;11.32;;;9.98;;
13455;SDS011;6800;50.940;6.940;2022-07-23T07:17:20;12.32;;;11.13;;
13455;SDS011;6800;50.940;6.940;2022-07-23T07:21:20;11.27;;;10.10;;
13455;SDS011;6800;50.940;6.940;2022-07-23T07:25:21;11.40;;;10.23;;
13455;SDS011;6800;50.940;6.940;2022-07-23T07:29:21;11.57;;;10.38;;
13455;SDS011;6800;50.940;6.940;2022-07-23T07:33:21;12.87;;;11.67;;
13455;SDS011;6800;50.940;6.940;2022-07-23T07:37:22;13.57;;;12.38;;
13455;SDS011;6800;50.940;6.940;2022-07-23T07:41:22;16.80;;;12.77;;
13455;SDS011;6800;50.940;6.940;2022-07-23T07:45:24;14.43;;;11.90;;
13455;SDS011;6800;50.940;6.940;2022-07-23T07:49:24;13.82;;;10.77;;
13455;SDS011;6800;50.940;6.940;2022-07-23T07:53:25;12.73;;;11.40;;
13455;SDS011;6800;50.940;6.940;2022-07-23T07:57:25;10.98;;;10.00;;
13455;SDS011;6800;50.940;6.940;2022-07-23T08:01:25;10.88;;;9.88;;
13455;SDS011;6800;50.940;6.940;2022-07-23T08:05:26;12.43;;;10.75;;
13455;SDS011;6800;50.940;6.940;2022-07-23T08:09:28;10.93;;;9.93;;
13455;SDS011;6800;50.940;6.940;2022-07-23T08:13:29;11.63;;;10.45;;
13455;SDS011;6800;50.940;6.940;2022-07-23T08:17:29;13.23;;;11.93;;
13455;SDS011;6800;50.940;6.940;2022-07-23T08:21:29;12.50;;;11.30;;
13455;SDS011;6800;50.940;6.940;2022-07-23T08:25:30;12.97;;;11.73;;
13455;SDS011;6800;50.940;6.940;2022-07-23T08:29:35;12.02;;;10.90;;
13455;SDS011;6800;50.940;6.940;2022-07-23T08:33:36;12.80;;;11.67;;
13455;SDS011;6800;50.940;6.940;2022-07-23T08:37:36;10.70;;;9.80;;
13455;SDS011;6800;50.940;6.940;2022-07-23T08:41:37;12.15;;;10.95;;
13455;SDS011;6800;50.940;6.940;2022-07-23T08:45:44;11.23;;;10.13;;
13455;SDS011;6800;50.940;6.940;2022-07-23T08:49:46;10.95;;;9.85;;
13455;SDS011;6800;50.940;6.940;2022-07-23T08:53:47;10.73;;;9.77;;
13455;SDS011;6800;50.940;6.940;2022-07-23T08:57:49;9.82;;;8.93;;
13455;SDS011;6800;50.940;6.940;2022-07-23T09:01:50;10.35;;;9.38;;
13455;SDS011;6800;50.940;6.940;2022-07-23T09:05:51;10.03;;;9.13;;
13455;SDS011;6800;50.940;6.940;2022-07-23T09:10:04;11.10;;;9.95;;
13455;SDS011;6800;50.940;6.940;2022-07-23T09:14:06;12.10;;;11.07;;
13455;SDS011;6800;50.940;6.940;2022-07-23T09:18:07;10.48;;;9.50;;
13455;SDS011;6800;50.940;6.940;2022-07-23T09:22:25;11.73;;;10.70;;
13455;SDS011;6800;50.940;6.940;2022-07-23T09:26:31;12.07;;;9.65;;
13455;SDS011;6800;50.940;6.940;2022-07-23T09:30:42;11.73;;;10.63;;
13455;SDS011;6800;50.940;6.940;2022-07-23T09:34:49;12.75;;;11.45;;
13455;SDS011;6800;50.940;6.940;2022-07-23T09:38:49;13.20;;;11.85;;
13455;SDS011;6800;50.940;6.940;2022-07-23T09:42:56;11.88;;;10.98;;
13455;SDS011;6800;50.940;6.940;2022-07-23T09:46:57;12.95;;;11.65;;
13455;SDS011;6800;50.940;6.940;2022-07-23T09:51:02;12.45;;;11.35;;
13455;SDS011;6800;50.940;6.940;2022-07-23T09:55:04;12.55;;;11.35;;
13455;SDS011;6800;50.940;6.940;2022-07-23T09:59:06;13.90;;;12.50;;
13455;SDS011;6800;50.940;6.940;2022-07-23T10:03:11;13.48;;;12.00;;
13455;SDS011;6800;50.940;6.940;2022-07-23T10:07:13;11.70;;;10.60;;
13455;SDS011;6800;50.940;6.940;2022-07-23T10:11:16;13.15;;;11.95;;
13455;SDS011;6800;50.940;6.940;2022-07-23T10:15:17;13.27;;;11.98;;
13455;SDS011;6800;50.940;6.940;2022-07-23T10:19:18;14.50;;;12.27;;
13455;SDS011;6800;50.940;6.940;2022-07-23T10:23:24;10.65;;;9.55;;
13455;SDS011;6800;50.940;6.940;2022-07-23T10:31:54;7.75;;;6.93;;
13455;SDS011;6800;50.940;6.940;2022-07-23T10:40:20;8.25;;;7.38;;
13455;SDS011;6800;50.940;6.940;2022-07-23T10:44:22;7.97;;;7.10;;
13455;SDS011;6800;50.940;6.940;2022-07-23T10:48:24;8.45;;;7.63;;
13455;SDS011;6800;50.940;6.940;2022-07-23T10:52:26;9.15;;;6.97;;
13455;SDS011;6800;50.940;6.940;2022-07-23T11:00:50;6.93;;;6.32;;
13455;SDS011;6800;50.940;6.940;2022-07-23T11:04:51;7.60;;;5.70;;
13455;SDS011;6800;50.940;6.940;2022-07-23T11:21:44;7.72;;;7.03;;
13455;SDS011;6800;50.940;6.940;2022-07-23T11:25:46;8.63;;;7.93;;
13455;SDS011;6800;50.940;6.940;2022-07-23T11:29:47;7.57;;;6.90;;
13455;SDS011;6800;50.940;6.940;2022-07-23T11:34:08;7.20;;;6.50;;
13455;SDS011;6800;50.940;6.940;2022-07-23T11:38:28;6.57;;;5.88;;
13455;SDS011;6800;50.940;6.940;2022-07-23T11:42:31;5.35;;;4.85;;
13455;SDS011;6800;50.940;6.940;2022-07-23T11:46:32;6.60;;;5.57;;
13455;SDS011;6800;50.940;6.940;2022-07-23T11:50:32;6.65;;;6.05;;
13455;SDS011;6800;50.940;6.940;2022-07-23T11:54:33;5.10;;;4.60;;
13455;SDS011;6800;50.940;6.940;2022-07-23T11:58:35;5.85;;;5.25;;
13455;SDS011;6800;50.940;6.940;2022-07-23T12:02:37;9.05;;;8.15;;
13455;SDS011;6800;50.940;6.940;2022-07-23T12:06:40;8.68;;;7.97;;
13455;SDS011;6800;50.940;6.940;2022-07-23T12:10:42;8.82;;;8.02;;
13455;SDS011;6800;50.940;6.940;2022-07-23T12:14:51;7.15;;;6.55;;
13455;SDS011;6800;50.940;6.940;2022-07-23T12:18:54;7.65;;;6.60;;
13455;SDS011;6800;50.940;6.940;2022-07-23T12:22:56;5.82;;;5.40;;
13455;SDS011;6800;50.940;6.940;2022-07-23T12:27:14;6.05;;;5.45;;
13455;SDS011;6800;50.940;6.940;2022-07-23T12:31:14;5.28;;;4.60;;
13455;SDS011;6800;50.940;6.940;2022-07-23T12:35:15;4.75;;;4.32;;
13455;SDS011;6800;50.940;6.940;2022-07-23T12:39:28;4.10;;;3.70;;
13455;SDS011;6800;50.940;6.940;2022-07-23T12:43:34;3.97;;;3.50;;
13455;SDS011;6800;50.940;6.940;2022-07-23T12:47:57;3.55;;;3.25;;
13455;SDS011;6800;50.940;6.940;2022-07-23T12:52:14;8.07;;;4.25;;
13455;SDS011;6800;50.940;6.940;2022-07-23T13:00:21;5.00;;;4.28;;
13455;SDS011;6800;50.940;6.940;2022-07-23T13:04:22;5.50;;;3.58;;
13455;SDS011;6800;50.940;6.940;2022-07-23T13:08:22;5.13;;;4.00;;
13455;SDS011;6800;50.940;6.940;2022-07-23T13:12:24;4.97;;;3.80;;
13455;SDS011;6800;50.940;6.940;2022-07-23T13:16:24;4.20;;;3.77;;
13455;SDS011;6800;50.940;6.940;2022-07-23T13:20:24;4.57;;;4.10;;
13455;SDS011;6800;50.940;6.940;2022-07-23T13:24:25;3.90;;;3.60;;
13455;SDS011;6800;50.940;6.940;2022-07-23T13:28:25;5.27;;;4.20;;
13455;SDS011;6800;50.940;6.940;2022-07-23T13:32:25;4.13;;;3.53;;
13455;SDS011;6800;50.940;6.940;2022-07-23T13:36:25;3.93;;;3.43;;
13455;SDS011;6800;50.940;6.940;2022-07-23T13:40:26;4.63;;;3.33;;
13455;SDS011;6800;50.940;6.940;2022-07-23T13:44:26;6.88;;;3.10;;
13455;SDS011;6800;50.940;6.940;2022-07-23T13:48:27;3.15;;;2.88;;
13455;SDS011;6800;50.940;6.940;2022-07-23T13:52:29;3.70;;;3.33;;
13455;SDS011;6800;50.940;6.940;2022-07-23T13:56:29;4.57;;;3.10;;
13455;SDS011;6800;50.940;6.940;2022-07-23T14:00:29;4.53;;;3.22;;
13455;SDS011;6800;50.940;6.940;2022-07-23T14:04:31;3.97;;;3.13;;
13455;SDS011;6800;50.940;6.940;2022-07-23T14:08:31;5.70;;;3.22;;
13455;SDS011;6800;50.940;6.940;2022-07-23T14:12:32;3.47;;;2.60;;
13455;SDS011;6800;50.940;6.940;2022-07-23T14:16:32;3.58;;;3.15;;
13455;SDS011;6800;50.940;6.940;2022-07-23T14:20:33;4.10;;;2.95;;
13455;SDS011;6800;50.940;6.940;2022-07-23T14:24:34;3.85;;;3.55;;
13455;SDS011;6800;50.940;6.940;2022-07-23T14:28:35;3.45;;;2.92;;
13455;SDS011;6800;50.940;6.940;2022-07-23T14:32:35;3.58;;;3.38;;
13455;SDS011;6800;50.940;6.940;2022-07-23T14:36:36;4.05;;;3.65;;
13455;SDS011;6800;50.940;6.940;2022-07-23T14:40:37;3.05;;;2.60;;
13455;SDS011;6800;50.940;6.940;2022-07-23T14:44:37;3.05;;;2.72;;
13455;SDS011;6800;50.940;6.940;2022-07-23T14:48:38;3.90;;;3.10;;
13455;SDS011;6800;50.940;6.940;2022-07-23T14:52:38;5.93;;;3.22;;
13455;SDS011;6800;50.940;6.940;2022-07-23T14:56:38;4.28;;;3.85;;
13455;SDS011;6800;50.940;6.940;2022-07-23T15:00:39;3.15;;;2.88;;
13455;SDS011;6800;50.940;6.940;2022-07-23T15:04:40;3.20;;;2.90;;
13455;SDS011;6800;50.940;6.940;2022-07-23T15:08:40;3.40;;;3.05;;
13455;SDS011;6800;50.940;6.940;2022-07-23T15:12:40;3.90;;;2.88;;
13455;SDS011;6800;50.940;6.940;2022-07-23T15:16:41;3.38;;;2.92;;
13455;SDS011;6800;50.940;6.940;2022-07-23T15:20:41;3.40;;;3.10;;
13455;SDS011;6800;50.940;6.940;2022-07-23T15:24:41;3.20;;;2.90;;
13455;SDS011;6800;50.940;6.940;2022-07-23T15:28:41;6.00;;;4.68;;
13455;SDS011;6800;50.940;6.940;2022-07-23T15:32:42;3.65;;;3.35;;
13455;SDS011;6800;50.940;6.940;2022-07-23T15:36:42;4.60;;;3.15;;
13455;SDS011;6800;50.940;6.940;2022-07-23T15:40:43;3.75;;;2.97;;
13455;SDS011;6800;50.940;6.940;2022-07-23T15:44:43;3.33;;;3.03;;
13455;SDS011;6800;50.940;6.940;2022-07-23T15:48:44;3.10;;;2.90;;
13455;SDS011;6800;50.940;6.940;2022-07-23T15:52:45;2.90;;;2.60;;
13455;SDS011;6800;50.940;6.940;2022-07-23T15:56:46;4.32;;;3.13;;
13455;SDS011;6800;50.940;6.940;2022-07-23T16:00:46;3.60;;;2.67;;
13455;SDS011;6800;50.940;6.940;2022-07-23T16:04:47;4.50;;;3.60;;
13455;SDS011;6800;50.940;6.940;2022-07-23T16:08:47;4.22;;;3.55;;
13455;SDS011;6800;50.940;6.940;2022-07-23T16:12:47;3.80;;;3.13;;
13455;SDS011;6800;50.940;6.940;2022-07-23T16:16:48;3.97;;;3.25;;
13455;SDS011;6800;50.940;6.940;2022-07-23T16:20:48;4.07;;;3.00;;
13455;SDS011;6800;50.940;6.940;2022-07-23T16:24:53;3.25;;;2.95;;
13455;SDS011;6800;50.940;6.940;2022-07-23T16:28:54;4.78;;;3.00;;
13455;SDS011;6800;50.940;6.940;2022-07-23T16:32:54;3.83;;;3.25;;
13455;SDS011;6800;50.940;6.940;2022-07-23T16:36:54;3.35;;;3.05;;
13455;SDS011;6800;50.940;6.940;2022-07-23T16:40:55;4.32;;;2.83;;
13455;SDS011;6800;50.940;6.940;2022-07-23T16:44:57;3.03;;;2.72;;
13455;SDS011;6800;50.940;6.940;2022-07-23T16:48:57;4.25;;;3.20;;
13455;SDS011;6800;50.940;6.940;2022-07-23T16:52:58;4.72;;;3.28;;
13455;SDS011;6800;50.940;6.940;2022-07-23T16:56:58;5.03;;;3.22;;
13455;SDS011;6800;50.940;6.940;2022-07-23T17:00:59;3.58;;;3.28;;
13455;SDS011;6800;50.940;6.940;2022-07-23T17:04:59;3.47;;;3.17;;
13455;SDS011;6800;50.940;6.940;2022-07-23T17:09:00;2.88;;;2.67;;
13455;SDS011;6800;50.940;6.940;2022-07-23T17:13:01;3.15;;;2.88;;
13455;SDS011;6800;50.940;6.940;2022-07-23T17:17:01;3.13;;;2.85;;
13455;SDS011;6800;50.940;6.940;2022-07-23T17:21:01;4.00;;;2.88;;
13455;SDS011;6800;50.940;6.940;2022-07-23T17:25:03;2.72;;;2.53;;
13455;SDS011;6800;50.940;6.940;2022-07-23T17:29:09;3.65;;;3.30;;
13455;SDS011;6800;50.940;6.940;2022-07-23T17:33:09;3.70;;;3.40;;
13455;SDS011;6800;50.940;6.940;2022-07-23T17:37:09;3.95;;;3.10;;
13455;SDS011;6800;50.940;6.940;2022-07-23T17:41:10;3.60;;;2.63;;
13455;SDS011;6800;50.940;6.940;2022-07-23T17:45:10;6.07;;;3.30;;
13455;SDS011;6800;50.940;6.940;2022-07-23T17:49:14;3.15;;;2.60;;
13455;SDS011;6800;50.940;6.940;2022-07-23T17:53:15;3.40;;;2.92;;
13455;SDS011;6800;50.940;6.940;2022-07-23T17:57:15;3.15;;;2.85;;
13455;SDS011;6800;50.940;6.940;2022-07-23T18:01:16;4.50;;;3.10;;
13455;SDS011;6800;50.940;6.940;2022-07-23T18:05:16;4.45;;;3.25;;
13455;SDS011;6800;50.940;6.940;2022-07-23T18:09:16;3.22;;;2.90;;
13455;SDS011;6800;50.940;6.940;2022-07-23T18:13:17;3.38;;;2.78;;
13455;SDS011;6800;50.940;6.940;2022-07-23T18:17:18;3.65;;;3.08;;
13455;SDS011;6800;50.940;6.940;2022-07-23T18:21:19;3.78;;;3.20;;
13455;SDS011;6800;50.940;6.940;2022-07-23T18:25:20;3.72;;;2.90;;
13455;SDS011;6800;50.940;6.940;2022-07-23T18:29:21;3.85;;;2.80;;
13455;SDS011;6800;50.940;6.940;2022-07-23T18:33:21;2.83;;;2.63;;
13455;SDS011;6800;50.940;6.940;2022-07-23T18:37:22;3.63;;;3.33;;
13455;SDS011;6800;50.940;6.940;2022-07-23T18:41:23;4.28;;;3.00;;
13455;SDS011;6800;50.940;6.940;2022-07-23T18:45:24;4.55;;;3.80;;
13455;SDS011;6800;50.940;6.940;2022-07-23T18:49:25;3.85;;;3.50;;
13455;SDS011;6800;50.940;6.940;2022-07-23T18:53:26;5.38;;;3.58;;
13455;SDS011;6800;50.940;6.940;2022-07-23T18:57:27;4.15;;;3.75;;
13455;SDS011;6800;50.940;6.940;2022-07-23T19:01:27;4.80;;;3.55;;
13455;SDS011;6800;50.940;6.940;2022-07-23T19:05:31;3.75;;;3.22;;
13455;SDS011;6800;50.940;6.940;2022-07-23T19:09:31;3.42;;;3.13;;
13455;SDS011;6800;50.940;6.940;2022-07-23T19:13:31;3.67;;;3.35;;
13455;SDS011;6800;50.940;6.940;2022-07-23T19:17:34;4.20;;;3.80;;
13455;SDS011;6800;50.940;6.940;2022-07-23T19:21:34;5.07;;;4.03;;
13455;SDS011;6800;50.940;6.940;2022-07-23T19:25:35;5.60;;;5.03;;
13455;SDS011;6800;50.940;6.940;2022-07-23T19:29:35;6.38;;;5.43;;
13455;SDS011;6800;50.940;6.940;2022-07-23T19:33:36;5.95;;;5.35;;
13455;SDS011;6800;50.940;6.940;2022-07-23T19:37:36;6.82;;;6.15;;
13455;SDS011;6800;50.940;6.940;2022-07-23T19:41:37;7.30;;;6.35;;
13455;SDS011;6800;50.940;6.940;2022-07-23T19:45:37;7.13;;;6.25;;
13455;SDS011;6800;50.940;6.940;2022-07-23T19:49:38;5.70;;;5.10;;
13455;SDS011;6800;50.940;6.940;2022-07-23T19:53:38;6.32;;;5.72;;
13455;SDS011;6800;50.940;6.940;2022-07-23T19:57:38;7.78;;;5.68;;
13455;SDS011;6800;50.940;6.940;2022-07-23T20:01:39;7.20;;;6.50;;
13455;SDS011;6800;50.940;6.940;2022-07-23T20:05:39;9.05;;;8.15;;
13455;SDS011;6800;50.940;6.940;2022-07-23T20:09:39;7.80;;;6.97;;
13455;SDS011;6800;50.940;6.940;2022-07-23T20:13:40;9.63;;;8.63;;
13455;SDS011;6800;50.940;6.940;2022-07-23T20:17:40;8.85;;;7.40;;
13455;SDS011;6800;50.940;6.940;2022-07-23T20:21:41;6.85;;;6.15;;
13455;SDS011;6800;50.940;6.940;2022-07-23T20:25:44;8.73;;;7.18;;
13455;SDS011;6800;50.940;6.940;2022-07-23T20:29:44;6.07;;;5.57;;
13455;SDS011;6800;50.940;6.940;2022-07-23T20:33:44;7.05;;;6.13;;
13455;SDS011;6800;50.940;6.940;2022-07-23T20:37:45;7.13;;;5.72;;
13455;SDS011;6800;50.940;6.940;2022-07-23T20:41:45;7.57;;;6.90;;
13455;SDS011;6800;50.940;6.940;2022-07-23T20:45:45;7.72;;;6.95;;
13455;SDS011;6800;50.940;6.940;2022-07-23T20:49:46;7.60;;;6.85;;
13455;SDS011;6800;50.940;6.940;2022-07-23T20:53:46;9.77;;;8.85;;
13455;SDS011;6800;50.940;6.940;2022-07-23T20:57:47;15.00;;;13.43;;
13455;SDS011;6800;50.940;6.940;2022-07-23T21:01:47;18.52;;;16.42;;
13455;SDS011;6800;50.940;6.940;2022-07-23T21:05:48;17.63;;;15.07;;
13455;SDS011;6800;50.940;6.940;2022-07-23T21:09:49;15.25;;;12.32;;
13455;SDS011;6800;50.940;6.940;2022-07-23T21:13:49;13.25;;;11.85;;
13455;SDS011;6800;50.940;6.940;2022-07-23T21:17:50;11.80;;;10.60;;
13455;SDS011;6800;50.940;6.940;2022-07-23T21:21:51;9.32;;;8.38;;
13455;SDS011;6800;50.940;6.940;2022-07-23T21:25:51;8.18;;;7.38;;
13455;SDS011;6800;50.940;6.940;2022-07-23T21:29:51;7.95;;;7.18;;
13455;SDS011;6800;50.940;6.940;2022-07-23T21:33:51;8.35;;;7.20;;
13455;SDS011;6800;50.940;6.940;2022-07-23T21:37:52;7.05;;;6.03;;
13455;SDS011;6800;50.940;6.940;2022-07-23T21:41:52;6.80;;;5.80;;
13455;SDS011;6800;50.940;6.940;2022-07-23T21:45:52;5.65;;;5.15;;
13455;SDS011;6800;50.940;6.940;2022-07-23T21:49:53;5.65;;;5.00;;
13455;SDS011;6800;50.940;6.940;2022-07-23T21:53:57;5.57;;;4.75;;
13455;SDS011;6800;50.940;6.940;2022-07-23T21:57:57;6.53;;;5.70;;
13455;SDS011;6800;50.940;6.940;2022-07-23T22:01:58;6.93;;;5.97;;
13455;SDS011;6800;50.940;6.940;2022-07-23T22:06:00;6.38;;;5.68;;
13455;SDS011;6800;50.940;6.940;2022-07-23T22:10:00;6.68;;;6.07;;
13455;SDS011;6800;50.940;6.940;2022-07-23T22:14:01;6.85;;;6.25;;
13455;SDS011;6800;50.940;6.940;2022-07-23T22:18:01;6.53;;;5.95;;
13455;SDS011;6800;50.940;6.940;2022-07-23T22:22:02;7.32;;;5.72;;
13455;SDS011;6800;50.940;6.940;2022-07-23T22:26:02;6.20;;;5.63;;
13455;SDS011;6800;50.940;6.940;2022-07-23T22:30:06;6.30;;;5.72;;
13455;SDS011;6800;50.940;6.940;2022-07-23T22:34:08;8.85;;;5.65;;
13455;SDS011;6800;50.940;6.940;2022-07-23T22:38:08;7.43;;;5.80;;
13455;SDS011;6800;50.940;6.940;2022-07-23T22:42:09;6.18;;;5.47;;
13455;SDS011;6800;50.940;6.940;2022-07-23T22:46:09;6.18;;;5.57;;
13455;SDS011;6800;50.940;6.940;2022-07-23T22:50:10;6.18;;;5.13;;
13455;SDS011;6800;50.940;6.940;2022-07-23T22:54:10;9.43;;;5.45;;
13455;SDS011;6800;50.940;6.940;2022-07-23T22:58:10;5.68;;;5.18;;
13455;SDS011;6800;50.940;6.940;2022-07-23T23:02:11;5.50;;;4.97;;
13455;SDS011;6800;50.940;6.940;2022-07-23T23:06:11;6.13;;;5.40;;
13455;SDS011;6800;50.940;6.940;2022-07-23T23:10:11;7.82;;;5.78;;
13455;SDS011;6800;50.940;6.940;2022-07-23T23:14:11;7.35;;;6.10;;
13455;SDS011;6800;50.940;6.940;2022-07-23T23:18:12;7.38;;;6.55;;
13455;SDS011;6800;50.940;6.940;2022-07-23T23:22:12;8.68;;;6.65;;
13455;SDS011;6800;50.940;6.940;2022-07-23T23:26:13;7.68;;;5.63;;
13455;SDS011;6800;50.940;6.940;2022-07-23T23:30:13;6.57;;;5.93;;
13455;SDS011;6800;50.940;6.940;2022-07-23T23:34:13;6.18;;;5.65;;
13455;SDS011;6800;50.940;6.940;2022-07-23T23:38:13;8.95;;;5.60;;
13455;SDS011;6800;50.940;6.940;2022-07-23T23:42:14;6.13;;;5.53;;
13455;SDS011;6800;50.940;6.940;2022-07-23T23:46:14;6.95;;;6.25;;
13455;SDS011;6800;50.940;6.940;2022-07-23T23:50:15;7.40;;;6.65;;
13455;SDS011;6800;50.940;6.940;2022-07-23T23:54:15;6.70;;;6.00;;
13455;SDS011;6800;50.940;6.940;2022-07-23T23:58:15;8.68;;;6.00;;
